Time;durP1;ratioP1;P1;durP2;ratioP2;P2;SDS_P1;SDS_P2;PMS_P1;PMS_P2;Temp;Humidity;BMP_temperature;BMP_pressure;BME280_temperature;BME280_humidity;BME280_pressure;Samples;Min_cycle;Max_cycle;Signal;HPM_P1;HPM_P2
2021/08/17 00:01:01;;;;;;;7.57;0.55;;;12.90;99.90;;;;;;4972348;28;20114;-86
2021/08/17 00:03:27;;;;;;;7.15;0.57;;;12.90;99.90;;;;;;4972361;28;20046;-89
2021/08/17 00:05:53;;;;;;;4.18;0.60;;;12.90;99.90;;;;;;4972398;28;20035;-88
2021/08/17 00:08:18;;;;;;;13.20;0.95;;;12.80;99.90;;;;;;4971739;28;20069;-86
2021/08/17 00:10:44;;;;;;;10.00;0.80;;;12.90;99.90;;;;;;4972150;28;20035;-87
2021/08/17 00:13:09;;;;;;;7.05;0.52;;;12.90;99.90;;;;;;4971957;28;20126;-87
2021/08/17 00:15:35;;;;;;;12.13;0.82;;;12.90;99.90;;;;;;4988133;28;20031;-87
2021/08/17 00:18:02;;;;;;;8.40;0.75;;;12.90;99.90;;;;;;4968520;28;20035;-87
2021/08/17 00:20:28;;;;;;;8.82;1.20;;;13.00;99.90;;;;;;4952642;29;20031;-87
2021/08/17 00:22:53;;;;;;;7.97;0.75;;;13.00;99.90;;;;;;4952647;29;20042;-88
2021/08/17 00:25:19;;;;;;;8.48;1.20;;;12.90;99.90;;;;;;4952572;29;20027;-86
2021/08/17 00:27:46;;;;;;;7.00;0.63;;;12.80;99.90;;;;;;4968485;29;20286;-87
2021/08/17 00:30:12;;;;;;;10.48;0.98;;;12.80;99.90;;;;;;4977913;28;20054;-88
2021/08/17 00:32:37;;;;;;;14.55;0.90;;;12.70;99.90;;;;;;4971961;28;20039;-87
2021/08/17 00:35:03;;;;;;;17.88;2.83;;;12.70;99.90;;;;;;4971923;28;20031;-87
2021/08/17 00:37:30;;;;;;;6.40;0.98;;;12.60;99.90;;;;;;4971488;28;20138;-87
2021/08/17 00:39:55;;;;;;;7.00;0.55;;;12.50;99.90;;;;;;4971894;28;20117;-87
2021/08/17 00:42:22;;;;;;;7.72;0.57;;;12.50;99.90;;;;;;4971683;28;20562;-86
2021/08/17 00:44:49;;;;;;;4.68;0.60;;;12.50;99.90;;;;;;4971459;28;20041;-86
2021/08/17 00:47:17;;;;;;;11.40;0.85;;;12.40;99.90;;;;;;4971341;28;20059;-88
2021/08/17 00:49:45;;;;;;;8.10;0.80;;;12.40;99.90;;;;;;4971387;28;20059;-87
2021/08/17 00:52:12;;;;;;;10.57;0.65;;;12.50;99.90;;;;;;4971799;28;20034;-87
2021/08/17 00:54:42;;;;;;;8.70;0.77;;;12.40;99.90;;;;;;4971518;28;20027;-88
2021/08/17 00:57:10;;;;;;;8.25;0.70;;;12.40;99.90;;;;;;4987884;28;20031;-87
2021/08/17 00:59:36;;;;;;;5.65;0.50;;;12.30;99.90;;;;;;4971101;28;20481;-89
2021/08/17 01:02:02;;;;;;;3.60;0.70;;;12.30;99.90;;;;;;4971483;28;20030;-89
2021/08/17 01:04:28;;;;;;;7.20;0.57;;;12.30;99.90;;;;;;4971405;28;20034;-89
2021/08/17 01:06:54;;;;;;;5.28;0.60;;;12.20;99.90;;;;;;4988774;28;20027;-89
2021/08/17 01:09:19;;;;;;;4.97;0.80;;;12.20;99.90;;;;;;4971065;28;20043;-89
2021/08/17 01:11:47;;;;;;;6.97;0.68;;;12.10;99.90;;;;;;4971323;28;20031;-89
2021/08/17 01:14:19;;;;;;;8.48;0.60;;;12.10;99.90;;;;;;4971276;28;20562;-89
2021/08/17 01:16:46;;;;;;;4.13;0.52;;;12.00;99.90;;;;;;4967584;28;20538;-88
2021/08/17 01:19:13;;;;;;;5.85;0.73;;;12.00;99.90;;;;;;4967412;29;20035;-87
2021/08/17 01:21:39;;;;;;;5.50;0.70;;;12.00;99.90;;;;;;4967996;29;20440;-87
2021/08/17 01:24:05;;;;;;;4.90;0.50;;;12.00;99.90;;;;;;4967729;29;20039;-87
2021/08/17 01:26:32;;;;;;;7.93;1.25;;;11.90;99.90;;;;;;4967588;29;20037;-89
2021/08/17 01:28:57;;;;;;;6.88;0.80;;;12.00;99.90;;;;;;4983588;28;20034;-87
2021/08/17 01:31:24;;;;;;;12.75;0.90;;;11.90;99.90;;;;;;4986413;28;20106;-89
2021/08/17 01:33:50;;;;;;;4.55;0.50;;;11.90;99.90;;;;;;4987038;28;20034;-89
2021/08/17 01:36:16;;;;;;;6.25;0.88;;;11.90;99.90;;;;;;4970836;28;20027;-88
2021/08/17 01:38:46;;;;;;;12.57;0.90;;;11.90;99.90;;;;;;4986570;28;20034;-87
2021/08/17 01:41:12;;;;;;;5.03;0.90;;;11.80;99.90;;;;;;4988345;28;20030;-87
2021/08/17 01:43:37;;;;;;;5.00;0.70;;;11.80;99.90;;;;;;4987997;28;20031;-88
2021/08/17 01:46:23;;;;;;;6.80;0.85;;;11.80;99.90;;;;;;4986521;28;20074;-87
2021/08/17 01:48:49;;;;;;;9.93;1.00;;;11.70;99.90;;;;;;4895915;29;20052;-89
2021/08/17 01:51:15;;;;;;;6.70;0.70;;;11.80;99.90;;;;;;4927925;29;20044;-88
2021/08/17 01:53:41;;;;;;;4.95;1.05;;;11.70;99.90;;;;;;4912439;29;20043;-90
2021/08/17 01:56:12;;;;;;;6.32;0.70;;;11.70;99.90;;;;;;4927790;29;20028;-90
2021/08/17 01:58:38;;;;;;;4.60;1.20;;;11.70;99.90;;;;;;4911912;29;20052;-87
2021/08/17 02:01:06;;;;;;;5.50;1.10;;;11.70;99.90;;;;;;4911824;29;20104;-90
2021/08/17 02:03:32;;;;;;;6.60;1.05;;;11.70;99.90;;;;;;4912031;29;20501;-89
2021/08/17 02:05:58;;;;;;;13.20;1.95;;;11.60;99.90;;;;;;4911709;29;20048;-89
2021/08/17 02:08:24;;;;;;;6.60;1.10;;;11.70;99.90;;;;;;4911724;29;20044;-90
2021/08/17 02:10:50;;;;;;;7.25;0.80;;;11.70;99.90;;;;;;4911863;29;20033;-90
2021/08/17 02:13:18;;;;;;;4.60;1.20;;;11.70;99.90;;;;;;4911711;29;20047;-89
2021/08/17 02:15:45;;;;;;;8.85;1.30;;;11.70;99.90;;;;;;4927373;29;20036;-90
2021/08/17 02:18:11;;;;;;;4.05;0.90;;;11.70;99.90;;;;;;4911747;29;20095;-88
2021/08/17 02:20:37;;;;;;;7.05;1.30;;;11.70;99.90;;;;;;4895828;29;20044;-88
2021/08/17 02:23:03;;;;;;;3.83;1.05;;;11.70;99.90;;;;;;4896232;29;20123;-90
2021/08/17 02:25:28;;;;;;;5.95;1.08;;;11.70;99.90;;;;;;4918612;28;20122;-86
2021/08/17 02:27:54;;;;;;;7.80;1.45;;;11.70;99.90;;;;;;4985931;28;20053;-90
2021/08/17 02:30:20;;;;;;;5.88;1.17;;;11.70;99.90;;;;;;4985357;28;20038;-91
2021/08/17 02:32:45;;;;;;;7.78;0.80;;;11.70;99.90;;;;;;4970102;28;20034;-91
2021/08/17 02:35:11;;;;;;;7.07;0.90;;;11.70;99.90;;;;;;4969853;28;20039;-91
2021/08/17 02:37:37;;;;;;;5.03;0.80;;;11.70;99.90;;;;;;4969734;28;20038;-90
2021/08/17 02:40:05;;;;;;;3.00;0.73;;;11.60;99.90;;;;;;4969561;28;20022;-91
2021/08/17 02:42:32;;;;;;;5.70;0.80;;;11.50;99.90;;;;;;4970083;28;20035;-91
2021/08/17 02:44:58;;;;;;;4.28;1.17;;;11.50;99.90;;;;;;4969665;28;20062;-90
2021/08/17 02:47:24;;;;;;;5.93;1.35;;;11.50;99.90;;;;;;4969351;28;20050;-90
2021/08/17 02:49:49;;;;;;;8.30;1.50;;;11.60;99.90;;;;;;4969625;28;20034;-89
2021/08/17 02:52:15;;;;;;;7.50;1.70;;;11.60;99.90;;;;;;4969926;28;20030;-91
2021/08/17 02:54:41;;;;;;;4.50;1.10;;;11.60;99.90;;;;;;4969948;28;20067;-90
2021/08/17 02:57:09;;;;;;;4.32;1.15;;;11.60;99.90;;;;;;4969695;28;20030;-90
2021/08/17 02:59:35;;;;;;;9.38;1.27;;;11.60;99.90;;;;;;4985792;28;20066;-87
2021/08/17 03:02:01;;;;;;;6.80;1.27;;;11.70;99.90;;;;;;4969532;28;20035;-90
2021/08/17 03:04:27;;;;;;;7.15;1.77;;;11.70;99.90;;;;;;4969658;28;20046;-88
2021/08/17 03:06:55;;;;;;;6.60;1.27;;;11.60;99.90;;;;;;4985910;28;20045;-87
2021/08/17 03:09:20;;;;;;;7.72;1.50;;;11.70;99.90;;;;;;4969695;28;20093;-87
2021/08/17 03:11:46;;;;;;;7.72;1.83;;;11.70;99.90;;;;;;4985747;28;20031;-90
2021/08/17 03:14:12;;;;;;;6.70;1.25;;;11.70;99.90;;;;;;4969580;28;20472;-90
2021/08/17 03:16:39;;;;;;;7.55;1.58;;;11.60;99.90;;;;;;4985331;28;20042;-91
2021/08/17 03:19:04;;;;;;;9.93;1.70;;;11.60;99.90;;;;;;4985449;28;20031;-91
2021/08/17 03:21:30;;;;;;;7.45;1.40;;;11.60;99.90;;;;;;4985619;28;20027;-90
2021/08/17 03:23:56;;;;;;;5.10;0.90;;;11.60;99.90;;;;;;4986830;28;20090;-87
2021/08/17 03:26:21;;;;;;;9.40;1.92;;;11.60;99.90;;;;;;4969219;28;20047;-88
2021/08/17 03:28:47;;;;;;;8.95;1.23;;;11.70;99.90;;;;;;4985477;28;20042;-87
2021/08/17 03:31:12;;;;;;;5.25;1.33;;;11.70;99.90;;;;;;4968258;28;20042;-89
2021/08/17 03:33:38;;;;;;;5.53;1.40;;;11.60;99.90;;;;;;4966373;29;20118;-88
2021/08/17 03:36:04;;;;;;;9.38;2.28;;;11.70;99.90;;;;;;4950180;29;20472;-88
2021/08/17 03:38:31;;;;;;;6.90;1.95;;;11.70;99.90;;;;;;4966082;29;20035;-90
2021/08/17 03:40:56;;;;;;;10.43;1.77;;;11.70;99.90;;;;;;4951816;29;20175;-90
2021/08/17 03:43:23;;;;;;;6.03;1.95;;;11.70;99.90;;;;;;4969908;29;20124;-88
2021/08/17 03:45:49;;;;;;;11.98;2.50;;;11.70;99.90;;;;;;4953439;29;20039;-87
2021/08/17 03:48:15;;;;;;;8.13;2.28;;;11.80;99.90;;;;;;4970303;29;20047;-88
2021/08/17 03:50:40;;;;;;;9.35;2.42;;;11.80;99.90;;;;;;4969483;29;20036;-89
2021/08/17 03:53:09;;;;;;;12.25;3.22;;;11.80;99.90;;;;;;4953573;29;20035;-90
2021/08/17 03:55:34;;;;;;;8.90;3.10;;;11.90;99.90;;;;;;4953275;29;20026;-87
2021/08/17 03:58:00;;;;;;;7.13;2.17;;;12.00;99.90;;;;;;4969067;29;20032;-87
2021/08/17 04:00:27;;;;;;;9.25;2.75;;;12.00;99.90;;;;;;4953294;29;20081;-89
2021/08/17 04:02:54;;;;;;;11.10;2.72;;;12.00;99.90;;;;;;4969415;29;20054;-87
2021/08/17 04:05:20;;;;;;;12.07;2.65;;;12.10;99.90;;;;;;4953211;29;20031;-88
2021/08/17 04:07:46;;;;;;;7.95;3.05;;;12.20;99.90;;;;;;4970053;29;20091;-88
2021/08/17 04:10:12;;;;;;;7.75;2.53;;;12.20;99.90;;;;;;4969240;29;20395;-88
2021/08/17 04:12:38;;;;;;;11.75;2.30;;;12.30;99.90;;;;;;4968789;29;20042;-89
2021/08/17 04:15:05;;;;;;;9.45;3.05;;;12.20;99.90;;;;;;4952968;29;20031;-88
2021/08/17 04:17:31;;;;;;;11.60;3.70;;;12.30;99.90;;;;;;4965884;28;20034;-87
2021/08/17 04:19:56;;;;;;;7.10;2.25;;;12.30;99.90;;;;;;4972224;28;20034;-89
2021/08/17 04:22:22;;;;;;;9.43;3.28;;;12.30;99.90;;;;;;4988263;28;20035;-86
2021/08/17 04:24:49;;;;;;;12.05;3.00;;;12.40;99.90;;;;;;4988137;28;20035;-86
2021/08/17 04:27:15;;;;;;;12.65;4.05;;;12.50;99.90;;;;;;4987306;28;20110;-89
2021/08/17 04:29:40;;;;;;;7.40;3.05;;;12.50;99.90;;;;;;4982463;28;20035;-88
2021/08/17 04:32:06;;;;;;;15.35;3.88;;;12.50;99.90;;;;;;4968141;29;20242;-89
2021/08/17 04:34:32;;;;;;;8.73;3.13;;;12.60;99.90;;;;;;4968192;29;20035;-87
2021/08/17 04:36:58;;;;;;;13.45;3.63;;;12.60;99.90;;;;;;4951891;29;20038;-90
2021/08/17 04:39:24;;;;;;;11.05;2.70;;;12.60;99.90;;;;;;4967606;29;20035;-87
2021/08/17 04:41:50;;;;;;;11.38;3.20;;;12.60;99.90;;;;;;4951833;29;20035;-89
2021/08/17 04:44:15;;;;;;;9.77;3.47;;;12.70;99.90;;;;;;4951853;29;20091;-89
2021/08/17 04:46:41;;;;;;;12.27;4.43;;;12.70;99.90;;;;;;4961165;23;20039;-90
2021/08/17 04:49:08;;;;;;;13.00;3.58;;;12.80;99.90;;;;;;4947218;29;20051;-88
2021/08/17 04:51:34;;;;;;;11.10;3.30;;;12.80;99.90;;;;;;4964553;29;20035;-89
2021/08/17 04:53:59;;;;;;;14.50;4.57;;;12.80;99.90;;;;;;4964746;29;20024;-89
2021/08/17 04:56:25;;;;;;;12.88;4.22;;;12.80;99.90;;;;;;4964878;29;20160;-91
2021/08/17 04:58:51;;;;;;;8.95;3.38;;;12.90;99.90;;;;;;4964560;29;20031;-90
2021/08/17 05:01:17;;;;;;;8.30;1.85;;;12.80;99.90;;;;;;4964799;29;20480;-91
2021/08/17 05:03:43;;;;;;;8.63;2.33;;;12.80;99.90;;;;;;4948817;29;20031;-90
2021/08/17 05:06:08;;;;;;;9.73;2.78;;;12.80;99.90;;;;;;4964820;29;20054;-91
2021/08/17 05:08:35;;;;;;;6.53;2.28;;;12.70;99.90;;;;;;4948604;29;20119;-91
2021/08/17 05:11:01;;;;;;;7.97;2.30;;;12.70;99.90;;;;;;4964847;29;20024;-89
2021/08/17 05:13:27;;;;;;;12.20;4.55;;;12.70;99.90;;;;;;4964538;29;20468;-88
2021/08/17 05:15:53;;;;;;;10.63;5.05;;;12.70;99.90;;;;;;4962632;29;20096;-89
2021/08/17 05:18:18;;;;;;;15.52;5.30;;;12.70;99.90;;;;;;4932516;29;20095;-91
2021/08/17 05:20:44;;;;;;;13.52;4.53;;;12.70;99.90;;;;;;4948480;29;20067;-88
2021/08/17 05:23:09;;;;;;;11.95;5.18;;;12.70;99.90;;;;;;4948311;29;20028;-91
2021/08/17 05:25:35;;;;;;;14.98;5.20;;;12.80;99.90;;;;;;4948792;29;20372;-92
2021/08/17 05:28:00;;;;;;;10.45;4.55;;;12.80;99.90;;;;;;4947899;29;20055;-90
2021/08/17 05:30:26;;;;;;;16.60;6.95;;;12.90;99.90;;;;;;4958755;29;20054;-93
2021/08/17 05:32:52;;;;;;;14.98;5.55;;;12.90;99.90;;;;;;4951338;29;20058;-91
2021/08/17 05:35:18;;;;;;;15.48;5.85;;;12.90;99.90;;;;;;4967152;29;20064;-92
2021/08/17 05:37:44;;;;;;;20.67;7.30;;;13.00;99.90;;;;;;4951219;29;20027;-91
2021/08/17 05:40:10;;;;;;;19.52;7.80;;;13.10;99.90;;;;;;4967157;29;20046;-93
2021/08/17 05:42:36;;;;;;;21.80;8.05;;;13.20;99.90;;;;;;4967210;29;20031;-90
2021/08/17 05:45:03;;;;;;;22.65;9.23;;;13.20;99.90;;;;;;4950845;29;20042;-91
2021/08/17 05:47:29;;;;;;;19.63;8.77;;;13.30;99.90;;;;;;4966051;29;20055;-93
2021/08/17 05:49:54;;;;;;;21.10;9.05;;;13.40;99.90;;;;;;4950575;29;20031;-92
2021/08/17 05:52:20;;;;;;;21.15;8.70;;;13.40;99.90;;;;;;4966605;29;20121;-91
2021/08/17 05:54:46;;;;;;;21.10;8.88;;;13.50;99.90;;;;;;4951113;29;20058;-93
2021/08/17 05:57:11;;;;;;;19.42;7.07;;;13.50;99.90;;;;;;4950676;29;20436;-91
2021/08/17 05:59:37;;;;;;;21.67;9.18;;;13.50;99.90;;;;;;4950333;29;20037;-93
2021/08/17 06:02:04;;;;;;;18.20;8.57;;;13.50;99.90;;;;;;4950142;29;20031;-93
2021/08/17 06:04:30;;;;;;;18.00;8.02;;;13.60;99.90;;;;;;4966479;28;20023;-92
2021/08/17 06:06:55;;;;;;;21.63;8.77;;;13.70;99.90;;;;;;4950478;29;20042;-90
2021/08/17 06:09:21;;;;;;;25.55;10.45;;;13.70;99.90;;;;;;4950414;29;20035;-93
2021/08/17 06:11:49;;;;;;;21.90;8.38;;;13.80;99.90;;;;;;4950583;29;20086;-92
2021/08/17 06:14:15;;;;;;;23.13;9.70;;;13.80;99.90;;;;;;4950574;29;20031;-92
2021/08/17 06:16:41;;;;;;;30.15;12.77;;;13.80;99.90;;;;;;4946913;29;20027;-89
2021/08/17 06:19:08;;;;;;;29.05;11.48;;;13.90;99.90;;;;;;4962946;29;20047;-88
2021/08/17 06:21:35;;;;;;;28.33;12.43;;;14.00;99.90;;;;;;4962946;29;20043;-89
2021/08/17 06:24:01;;;;;;;30.33;12.93;;;14.00;99.90;;;;;;4931111;29;20032;-90
2021/08/17 06:26:27;;;;;;;27.35;10.50;;;14.00;99.90;;;;;;4963044;29;20032;-88
2021/08/17 06:28:53;;;;;;;30.75;13.90;;;14.10;99.90;;;;;;4930854;29;20080;-90
2021/08/17 06:31:23;;;;;;;36.63;14.13;;;14.20;99.90;;;;;;4931072;29;20035;-91
2021/08/17 06:33:49;;;;;;;;;;;14.30;99.90;;;;;;4947466;29;20044;-94
2021/08/17 06:36:15;;;;;;;29.20;11.85;;;14.40;99.90;;;;;;4948213;29;19922;-94
2021/08/17 06:38:42;;;;;;;28.70;11.95;;;14.50;99.90;;;;;;4946913;29;20118;-90
2021/08/17 06:41:08;;;;;;;26.83;11.20;;;14.60;99.90;;;;;;4946640;29;20039;-91
2021/08/17 06:43:34;;;;;;;27.83;12.13;;;14.70;99.90;;;;;;4946295;29;20063;-90
2021/08/17 06:46:20;;;;;;;28.35;12.60;;;14.80;99.90;;;;;;4946448;29;20467;-90
2021/08/17 06:48:52;;;;;;;36.17;13.70;;;14.80;99.90;;;;;;4871857;29;20064;-93
2021/08/17 06:51:17;;;;;;;30.15;13.15;;;14.90;99.90;;;;;;4918840;29;20130;-93
2021/08/17 06:53:49;;;;;;;25.35;10.38;;;15.00;99.90;;;;;;4908503;29;20124;-95
2021/08/17 06:56:15;;;;;;;32.42;14.23;;;15.20;99.90;;;;;;4892215;29;20079;-95
2021/08/17 06:58:41;;;;;;;33.40;13.82;;;15.10;99.90;;;;;;4891471;29;20081;-91
2021/08/17 07:01:07;;;;;;;36.90;14.90;;;15.00;99.90;;;;;;4907058;29;20064;-92
2021/08/17 07:03:32;;;;;;;40.28;16.15;;;15.10;99.90;;;;;;4909124;29;20540;-95
2021/08/17 07:05:58;;;;;;;31.77;14.02;;;15.20;99.90;;;;;;4908739;29;20151;-93
2021/08/17 07:08:24;;;;;;;26.52;11.20;;;15.50;99.90;;;;;;4892126;29;20041;-91
2021/08/17 07:10:50;;;;;;;27.90;11.77;;;15.60;99.90;;;;;;4891796;29;20028;-91
2021/08/17 07:13:15;;;;;;;30.83;13.95;;;15.60;99.90;;;;;;4907352;29;20044;-89
2021/08/17 07:15:41;;;;;;;35.17;14.35;;;15.50;99.90;;;;;;4908811;29;20044;-86
2021/08/17 07:18:08;;;;;;;37.53;18.02;;;15.40;99.90;;;;;;4914056;29;20032;-86
2021/08/17 07:20:33;;;;;;;41.00;16.02;;;15.20;99.90;;;;;;4921151;29;20051;-88
2021/08/17 07:22:59;;;;;;;42.25;17.63;;;15.20;99.90;;;;;;4894800;29;20036;-87
2021/08/17 07:25:25;;;;;;;34.65;14.43;;;15.20;99.90;;;;;;4910972;29;20036;-90
2021/08/17 07:27:50;;;;;;;35.45;15.95;;;15.40;99.90;;;;;;4966379;28;20099;-94
2021/08/17 07:30:16;;;;;;;45.67;19.25;;;15.30;99.90;;;;;;4960278;29;20047;-92
2021/08/17 07:32:44;;;;;;;38.63;14.68;;;15.30;99.90;;;;;;4953847;29;20035;-91
2021/08/17 07:35:12;;;;;;;37.30;14.98;;;15.40;99.90;;;;;;4967439;28;20031;-88
2021/08/17 07:37:38;;;;;;;38.63;17.90;;;15.30;99.90;;;;;;4949771;29;20122;-90
2021/08/17 07:40:05;;;;;;;41.05;16.80;;;15.40;99.90;;;;;;4950499;29;20103;-91
2021/08/17 07:42:32;;;;;;;33.92;14.43;;;15.50;99.90;;;;;;4962723;28;20091;-92
2021/08/17 07:44:57;;;;;;;32.50;14.57;;;15.60;99.90;;;;;;4965996;28;20031;-89
2021/08/17 07:47:23;;;;;;;32.17;14.45;;;15.60;99.90;;;;;;4949836;29;20054;-92
2021/08/17 07:49:49;;;;;;;32.40;13.68;;;15.70;99.90;;;;;;4950311;29;20032;-92
2021/08/17 07:52:15;;;;;;;35.45;16.30;;;16.00;99.90;;;;;;4950312;29;20099;-92
2021/08/17 07:54:40;;;;;;;27.85;12.07;;;16.00;99.90;;;;;;4950297;29;20090;-91
2021/08/17 07:57:06;;;;;;;22.90;10.43;;;16.30;99.90;;;;;;4950185;29;20071;-93
2021/08/17 07:59:37;;;;;;;33.58;14.85;;;16.70;99.90;;;;;;4950124;29;20059;-92
2021/08/17 08:02:03;;;;;;;33.33;14.43;;;16.60;99.90;;;;;;4949932;29;20035;-88
2021/08/17 08:04:29;;;;;;;27.10;13.73;;;16.30;99.90;;;;;;4948028;29;20047;-87
2021/08/17 08:06:55;;;;;;;36.00;14.52;;;16.20;99.90;;;;;;4951001;29;20032;-91
2021/08/17 08:09:25;;;;;;;32.60;14.73;;;16.00;99.90;;;;;;4950050;29;20043;-88
2021/08/17 08:11:50;;;;;;;;;;;16.10;99.90;;;;;;4934451;29;20133;-92
2021/08/17 08:14:16;;;;;;;34.20;14.00;;;16.30;99.90;;;;;;4946461;29;19911;-87
2021/08/17 08:16:42;;;;;;;36.88;15.05;;;16.10;99.90;;;;;;4967351;28;20028;-90
2021/08/17 08:19:18;;;;;;;32.35;12.68;;;16.00;99.90;;;;;;4950701;29;20023;-92
2021/08/17 08:21:44;;;;;;;28.30;12.80;;;16.10;99.90;;;;;;4959654;29;20068;-89
2021/08/17 08:24:10;;;;;;;26.77;11.45;;;16.10;99.90;;;;;;4946141;29;20032;-94
2021/08/17 08:26:35;;;;;;;29.00;11.82;;;16.20;99.90;;;;;;4948657;29;20042;-88
2021/08/17 08:29:12;;;;;;;28.20;11.38;;;16.20;99.90;;;;;;4933423;29;20072;-91
2021/08/17 08:31:38;;;;;;;21.75;10.68;;;16.30;99.90;;;;;;4929660;29;20043;-90
2021/08/17 08:34:04;;;;;;;28.63;12.40;;;16.30;99.90;;;;;;4944341;29;20043;-92
2021/08/17 08:36:30;;;;;;;25.98;11.55;;;16.30;99.90;;;;;;4932846;29;20095;-88
2021/08/17 08:38:55;;;;;;;30.05;10.73;;;16.30;99.90;;;;;;4948531;29;20051;-87
2021/08/17 08:41:21;;;;;;;29.90;11.68;;;16.30;99.90;;;;;;4948499;29;20042;-87
2021/08/17 08:43:47;;;;;;;26.67;11.65;;;16.20;99.90;;;;;;4964482;29;20034;-88
2021/08/17 08:46:15;;;;;;;29.85;10.75;;;16.20;99.90;;;;;;4948550;29;20365;-88
2021/08/17 08:48:49;;;;;;;21.75;10.40;;;16.40;99.90;;;;;;4947399;29;20059;-88
2021/08/17 08:51:17;;;;;;;24.00;11.55;;;16.40;99.90;;;;;;4964251;29;20121;-89
2021/08/17 08:53:44;;;;;;;26.30;11.30;;;16.50;99.90;;;;;;4964446;29;20103;-89
2021/08/17 08:56:10;;;;;;;25.10;10.65;;;16.60;99.90;;;;;;4964249;29;20059;-92
2021/08/17 08:58:36;;;;;;;27.00;10.57;;;16.80;99.90;;;;;;4963982;29;20099;-87
2021/08/17 09:01:02;;;;;;;19.27;8.82;;;16.70;99.90;;;;;;4948334;29;20059;-91
2021/08/17 09:03:48;;;;;;;25.88;9.40;;;16.80;99.90;;;;;;4932482;29;20040;-85
2021/08/17 09:06:28;;;;;;;24.20;11.00;;;16.50;99.90;;;;;;4932268;29;20535;-89
2021/08/17 09:09:06;;;;;;;25.27;10.82;;;16.40;99.90;;;;;;4947854;29;20050;-90
2021/08/17 09:11:32;;;;;;;23.23;10.77;;;16.40;99.90;;;;;;4948269;29;20032;-90
2021/08/17 09:14:17;;;;;;;22.83;9.68;;;16.40;99.90;;;;;;4948086;29;20127;-88
2021/08/17 09:16:43;;;;;;;24.40;9.73;;;16.20;99.90;;;;;;4931638;29;20031;-86
2021/08/17 09:19:43;;;;;;;25.38;11.32;;;16.20;99.90;;;;;;4948240;29;20040;-87
2021/08/17 09:22:19;;;;;;;22.17;9.35;;;16.20;99.90;;;;;;4922990;29;20048;-88
2021/08/17 09:24:53;;;;;;;18.58;8.95;;;16.30;99.90;;;;;;4948302;29;20031;-88
2021/08/17 09:27:22;;;;;;;20.80;7.97;;;16.30;99.90;;;;;;4947916;29;20043;-91
2021/08/17 09:29:52;;;;;;;18.92;8.05;;;16.30;99.90;;;;;;4969585;28;20066;-90
2021/08/17 09:32:20;;;;;;;;;;;16.30;99.90;;;;;;4951211;29;20419;-90
2021/08/17 09:34:49;;;;;;;21.40;9.63;;;16.30;99.90;;;;;;4982963;28;19961;-91
2021/08/17 09:37:15;;;;;;;19.10;9.15;;;16.30;99.90;;;;;;4945346;29;20087;-88
2021/08/17 09:39:50;;;;;;;20.08;9.02;;;16.30;99.90;;;;;;4947113;29;20072;-89
2021/08/17 09:42:20;;;;;;;24.63;10.38;;;16.30;99.90;;;;;;4947567;29;20114;-88
2021/08/17 09:45:06;;;;;;;19.77;8.57;;;16.50;99.90;;;;;;4947367;29;20039;-86
2021/08/17 09:47:33;;;;;;;23.95;9.90;;;16.50;99.90;;;;;;4972062;23;20138;-89
2021/08/17 09:50:29;;;;;;;21.02;9.10;;;16.50;99.90;;;;;;4931332;29;20067;-87
2021/08/17 09:53:17;;;;;;;19.10;8.65;;;16.70;99.90;;;;;;4947022;29;20035;-88
2021/08/17 09:55:52;;;;;;;17.70;7.80;;;16.80;99.90;;;;;;4931198;29;20036;-89
2021/08/17 09:58:38;;;;;;;14.77;6.88;;;17.10;99.90;;;;;;4930050;29;20031;-90
2021/08/17 10:01:09;;;;;;;19.80;8.68;;;17.40;99.90;;;;;;4931217;29;20187;-87
2021/08/17 10:03:35;;;;;;;20.00;8.60;;;17.20;99.90;;;;;;4947212;29;20028;-85
2021/08/17 10:06:02;;;;;;;20.27;7.45;;;17.20;99.90;;;;;;4930383;29;20035;-89
2021/08/17 10:08:31;;;;;;;16.23;7.47;;;17.10;99.90;;;;;;4929863;29;20062;-86
2021/08/17 10:10:57;;;;;;;21.08;8.82;;;17.10;99.90;;;;;;4930425;29;20032;-88
2021/08/17 10:13:27;;;;;;;13.02;6.53;;;16.80;99.90;;;;;;4927055;29;20040;-89
2021/08/17 10:15:53;;;;;;;14.63;6.97;;;16.90;99.90;;;;;;4945935;29;20035;-88
2021/08/17 10:18:34;;;;;;;18.63;7.43;;;17.00;99.90;;;;;;4926127;29;20531;-87
2021/08/17 10:21:04;;;;;;;15.50;6.15;;;17.00;99.90;;;;;;4955154;29;20041;-86
2021/08/17 10:23:31;;;;;;;;;;;16.90;99.90;;;;;;4927809;29;20036;-87
2021/08/17 10:25:58;;;;;;;15.55;6.95;;;17.00;99.90;;;;;;4935667;29;19915;-85
2021/08/17 10:28:27;;;;;;;16.80;6.55;;;16.90;99.90;;;;;;4957974;29;20051;-87
2021/08/17 10:30:54;;;;;;;18.00;6.53;;;16.90;99.90;;;;;;4945758;29;20043;-87
2021/08/17 10:33:38;;;;;;;12.52;6.13;;;16.80;99.90;;;;;;4930652;29;20154;-89
2021/08/17 10:36:03;;;;;;;14.55;7.53;;;17.00;99.90;;;;;;4930232;29;20099;-87
2021/08/17 10:38:29;;;;;;;14.38;7.45;;;16.80;99.90;;;;;;4945939;29;20039;-88
2021/08/17 10:40:54;;;;;;;15.13;6.60;;;17.00;99.90;;;;;;4945684;29;20040;-89
2021/08/17 10:43:21;;;;;;;14.27;6.05;;;16.80;99.90;;;;;;4930115;29;20032;-89
2021/08/17 10:49:41;;;;;;;13.02;6.10;;;16.60;99.90;;;;;;4878522;29;1024487;-89
2021/08/17 10:52:09;;;;;;;15.38;5.72;;;16.90;99.90;;;;;;4930047;29;20040;-87
2021/08/17 10:54:37;;;;;;;11.25;5.50;;;16.90;99.90;;;;;;4914416;29;20040;-87
2021/08/17 10:57:20;;;;;;;12.32;4.90;;;16.80;99.90;;;;;;4898122;29;20153;-87
2021/08/17 10:59:47;;;;;;;10.10;4.95;;;16.90;99.90;;;;;;4914328;29;20535;-87
2021/08/17 11:02:14;;;;;;;12.25;5.03;;;16.80;99.90;;;;;;4914503;29;20036;-88
2021/08/17 11:04:48;;;;;;;9.65;4.88;;;16.70;99.90;;;;;;4914165;29;20077;-87
2021/08/17 11:07:24;;;;;;;11.57;4.72;;;16.80;99.90;;;;;;4913133;29;20063;-87
2021/08/17 11:09:51;;;;;;;9.95;5.00;;;16.80;99.90;;;;;;4914067;29;20047;-87
2021/08/17 11:12:18;;;;;;;8.05;4.10;;;16.60;99.90;;;;;;4914387;29;20044;-87
2021/08/17 11:14:45;;;;;;;8.75;3.78;;;16.60;99.90;;;;;;4898292;29;20092;-86
2021/08/17 11:17:19;;;;;;;9.18;4.10;;;16.60;99.90;;;;;;4913753;29;20036;-87
2021/08/17 11:19:50;;;;;;;9.90;4.25;;;16.50;99.90;;;;;;4898517;29;20048;-87
2021/08/17 11:22:18;;;;;;;9.52;3.70;;;16.40;99.90;;;;;;4914549;29;20036;-88
2021/08/17 11:24:47;;;;;;;13.35;4.22;;;16.50;99.90;;;;;;4918832;29;20064;-88
2021/08/17 11:27:24;;;;;;;8.98;3.75;;;16.50;99.90;;;;;;4952943;29;20070;-88
2021/08/17 11:29:56;;;;;;;6.13;3.10;;;16.50;99.90;;;;;;4946790;29;20111;-88
2021/08/17 11:32:35;;;;;;;10.23;3.42;;;16.50;99.90;;;;;;4950005;29;20508;-86
2021/08/17 11:35:13;;;;;;;7.88;2.72;;;16.40;99.90;;;;;;4949490;29;20036;-87
2021/08/17 11:37:44;;;;;;;6.20;2.83;;;16.20;99.90;;;;;;4933550;29;20118;-90
2021/08/17 11:40:13;;;;;;;8.43;2.83;;;16.30;99.90;;;;;;4933828;29;20039;-88
2021/08/17 11:42:43;;;;;;;8.85;2.78;;;16.20;99.90;;;;;;4949591;29;20079;-88
2021/08/17 11:45:09;;;;;;;8.50;2.90;;;16.20;99.90;;;;;;4949698;29;20039;-88
2021/08/17 11:47:36;;;;;;;9.25;3.05;;;16.20;99.90;;;;;;4933248;29;20054;-89
2021/08/17 11:50:07;;;;;;;8.70;3.42;;;16.10;99.90;;;;;;4918659;29;20088;-87
2021/08/17 11:52:41;;;;;;;8.02;3.70;;;16.00;99.90;;;;;;4914690;29;20046;-87
2021/08/17 11:55:12;;;;;;;9.27;3.22;;;15.80;99.90;;;;;;4914535;29;20028;-89
2021/08/17 11:57:50;;;;;;;7.82;3.10;;;15.60;99.90;;;;;;4914559;29;20060;-90
2021/08/17 12:00:22;;;;;;;5.88;3.00;;;15.50;99.90;;;;;;4915967;29;20055;-91
2021/08/17 12:03:01;;;;;;;8.00;3.70;;;15.40;99.90;;;;;;4965026;28;20044;-92
2021/08/17 12:06:10;;;;;;;6.82;2.88;;;15.30;99.90;;;;;;4938562;29;20065;-93
2021/08/17 12:08:35;;;;;;;11.50;4.72;;;15.30;99.90;;;;;;4920472;29;20126;-93
2021/08/17 12:11:02;;;;;;;8.95;4.10;;;15.20;99.90;;;;;;4933299;29;20086;-93
2021/08/17 12:13:38;;;;;;;7.55;3.10;;;15.20;99.90;;;;;;4931829;29;20032;-93
2021/08/17 12:16:04;;;;;;;10.10;4.57;;;15.20;99.90;;;;;;4951477;29;20095;-95
2021/08/17 12:18:33;;;;;;;10.45;4.80;;;15.10;99.90;;;;;;4952625;29;20039;-92
2021/08/17 12:21:05;;;;;;;6.82;3.08;;;15.10;99.90;;;;;;4952270;29;20059;-91
2021/08/17 12:23:36;;;;;;;6.45;3.10;;;15.10;99.90;;;;;;4952102;29;20043;-94
2021/08/17 12:26:19;;;;;;;11.15;4.20;;;15.10;99.90;;;;;;4952817;29;20038;-93
2021/08/17 12:28:50;;;;;;;8.40;3.20;;;15.10;99.90;;;;;;4951645;29;20110;-93
2021/08/17 12:31:32;;;;;;;8.20;4.28;;;15.10;99.90;;;;;;4918424;29;20036;-93
2021/08/17 12:34:08;;;;;;;6.32;2.60;;;15.00;99.90;;;;;;4929846;29;20091;-91
2021/08/17 12:36:40;;;;;;;8.23;2.72;;;15.10;99.90;;;;;;4934961;29;20035;-92
2021/08/17 12:39:08;;;;;;;13.75;5.15;;;15.20;99.90;;;;;;4932614;29;20035;-89
2021/08/17 12:41:39;;;;;;;9.05;4.57;;;14.90;99.90;;;;;;4929766;29;20040;-90
2021/08/17 12:44:18;;;;;;;7.32;4.70;;;14.80;99.90;;;;;;4920082;29;20036;-91
2021/08/17 12:47:04;;;;;;;13.35;6.35;;;14.80;99.90;;;;;;4948321;29;20108;-90
2021/08/17 12:50:06;;;;;;;13.40;6.55;;;14.70;99.90;;;;;;4955593;29;20115;-89